Terminal Aerodrome Forecast
Issued by NWS

Home | Current Version | Previous Version | Text Only | Print | Product List | Glossary On
Versions: 1 2 3 4 5 6 7 8 9 10 11 12 13 14 15 16 17
000
FTUS44 KBMX 260800 AAA
TAFANB
TAF AMD
KANB 260837Z 2609/2706 25007KT P6SM OVC020
     FM260930 27012G18KT P6SM OVC015
     FM262100 28007KT P6SM SKC=

USA.gov is the U.S. government's official web portal to all federal, state and local government web resources and services.